createdAt,value
2022-09-28T00:00:04.516Z,74389.28
2022-09-28T00:02:32.333Z,74381.06
2022-09-28T00:04:59.533Z,74381.06
2022-09-28T00:07:27.516Z,74376.97
2022-09-28T00:09:54.586Z,74376.97
2022-09-28T00:12:23.661Z,74376.97
2022-09-28T00:14:51.301Z,74368.75
2022-09-28T00:17:22.246Z,74368.75
2022-09-28T00:19:49.797Z,74368.75
2022-09-28T00:22:16.912Z,74368.75
2022-09-28T00:24:44.835Z,74372.84
2022-09-28T00:27:12.576Z,74381.06
2022-09-28T00:29:39.709Z,74385.19
2022-09-28T00:32:07.926Z,74391.34
2022-09-28T00:34:36.064Z,74395.47
2022-09-28T00:37:03.668Z,74397.50
2022-09-28T00:39:35.737Z,74376.97
2022-09-28T00:42:03.189Z,74374.91
2022-09-28T00:44:35.772Z,74379.03
2022-09-28T00:47:11.768Z,74379.03
2022-09-28T00:49:51.143Z,74376.97
2022-09-28T00:52:28.484Z,74376.97
2022-09-28T00:54:55.573Z,74372.84
2022-09-28T00:57:23.170Z,74374.91
2022-09-28T00:59:50.395Z,74376.97
2022-09-28T01:02:17.816Z,74374.91
2022-09-28T01:04:44.889Z,74379.03
2022-09-28T01:07:12.637Z,74376.97
2022-09-28T01:09:40.660Z,74387.25
2022-09-28T01:12:07.895Z,74374.91
2022-09-28T01:14:35.329Z,74376.97
2022-09-28T01:17:11.733Z,74372.84
2022-09-28T01:19:41.653Z,74372.84
2022-09-28T01:22:27.285Z,74368.75
2022-09-28T01:25:03.297Z,74381.06
2022-09-28T01:27:36.135Z,74383.13
2022-09-28T01:30:10.628Z,74381.06
2022-09-28T01:32:55.233Z,74383.13
2022-09-28T01:35:27.080Z,74385.19
2022-09-28T01:37:56.037Z,74383.13
2022-09-28T01:40:23.969Z,74383.13
2022-09-28T01:42:52.543Z,74374.91
2022-09-28T01:45:30.299Z,74374.91
2022-09-28T01:47:58.537Z,74376.97
2022-09-28T01:50:25.824Z,74376.97
2022-09-28T01:53:12.646Z,74368.75
2022-09-28T01:55:42.359Z,74381.06
2022-09-28T01:58:13.918Z,74389.28
2022-09-28T02:00:42.800Z,74393.41
2022-09-28T02:03:16.822Z,74393.41
2022-09-28T02:05:46.371Z,74401.63
2022-09-28T02:08:30.657Z,74393.41
2022-09-28T02:10:58.978Z,74405.72
2022-09-28T02:13:28.605Z,74405.72
2022-09-28T02:16:01.166Z,74405.72
2022-09-28T02:18:28.732Z,74403.66
2022-09-28T02:20:57.566Z,74399.56
2022-09-28T02:23:25.202Z,74399.56
2022-09-28T02:25:53.771Z,74407.78
2022-09-28T02:28:20.898Z,74401.63
2022-09-28T02:30:47.978Z,74395.47
2022-09-28T02:33:16.778Z,74403.66
2022-09-28T02:35:43.977Z,74393.41
2022-09-28T02:38:11.701Z,74401.63
2022-09-28T02:40:40.558Z,74405.72
2022-09-28T02:43:10.821Z,74395.47
2022-09-28T02:45:56.096Z,74397.50
2022-09-28T02:49:00.159Z,74405.72
2022-09-28T02:51:39.264Z,74397.50
2022-09-28T02:54:11.978Z,74397.50
2022-09-28T02:56:46.430Z,74401.63
2022-09-28T02:59:25.744Z,74397.50
2022-09-28T03:01:55.785Z,74401.63
2022-09-28T03:04:28.166Z,74407.78
2022-09-28T03:06:57.578Z,74405.72
2022-09-28T03:09:26.713Z,74409.84
2022-09-28T03:11:54.483Z,74413.94
2022-09-28T03:14:21.589Z,74420.09
2022-09-28T03:16:48.893Z,74418.06
2022-09-28T03:19:16.537Z,74418.06
2022-09-28T03:21:43.674Z,74416.00
2022-09-28T03:24:11.239Z,74418.06
2022-09-28T03:26:38.807Z,74422.16
2022-09-28T03:29:05.888Z,74422.16
2022-09-28T03:31:33.283Z,74426.28
2022-09-28T03:34:00.499Z,74428.31
2022-09-28T03:36:27.588Z,74424.22
2022-09-28T03:38:59.575Z,74438.59
2022-09-28T03:41:27.942Z,74428.31
2022-09-28T03:43:55.635Z,74426.28
2022-09-28T03:46:22.681Z,74422.16
2022-09-28T03:48:49.751Z,74430.38
2022-09-28T03:51:16.862Z,74434.50
2022-09-28T03:53:43.995Z,74428.31
2022-09-28T03:56:12.637Z,74428.31
2022-09-28T03:58:40.479Z,74430.38
2022-09-28T04:01:10.747Z,74424.22
2022-09-28T04:03:40.977Z,74424.22
2022-09-28T04:06:08.153Z,74418.06
2022-09-28T04:08:37.124Z,74413.94
2022-09-28T04:11:04.786Z,74418.06
2022-09-28T04:13:32.332Z,74420.09
2022-09-28T04:16:00.033Z,74409.84
2022-09-28T04:18:28.245Z,74422.16
2022-09-28T04:21:03.730Z,74422.16
2022-09-28T04:23:31.089Z,74426.28
2022-09-28T04:25:58.471Z,74428.31
2022-09-28T04:28:44.269Z,74434.50
2022-09-28T04:31:11.944Z,74434.50
2022-09-28T04:33:39.147Z,74430.38
2022-09-28T04:36:06.846Z,74430.38
2022-09-28T04:38:51.634Z,74434.50
2022-09-28T04:41:19.860Z,74432.44
2022-09-28T04:43:47.415Z,74418.06
2022-09-28T04:46:14.871Z,74405.72
2022-09-28T04:48:41.969Z,74401.63
2022-09-28T04:51:11.146Z,74401.63
2022-09-28T04:53:38.313Z,74401.63
2022-09-28T04:56:10.327Z,74385.19
2022-09-28T04:58:37.621Z,74387.25
2022-09-28T05:01:08.122Z,74385.19
2022-09-28T05:03:36.065Z,74389.28
2022-09-28T05:06:03.249Z,74418.06
2022-09-28T05:08:32.706Z,74438.59
2022-09-28T05:11:02.278Z,74450.94
2022-09-28T05:13:29.645Z,74452.97
2022-09-28T05:16:00.632Z,74467.34
2022-09-28T05:18:30.388Z,74469.41
2022-09-28T05:20:57.497Z,74467.34
2022-09-28T05:23:24.665Z,74479.69
2022-09-28T05:25:51.970Z,74471.47
2022-09-28T05:28:26.385Z,74465.31
2022-09-28T05:31:01.361Z,74463.25
2022-09-28T05:33:28.715Z,74459.16
2022-09-28T05:36:00.770Z,74448.88
2022-09-28T05:38:28.536Z,74471.47
2022-09-28T05:40:55.802Z,74487.91
2022-09-28T05:43:23.098Z,74483.78
2022-09-28T05:45:54.509Z,74481.75
2022-09-28T05:48:22.852Z,74465.31
2022-09-28T05:50:51.946Z,74477.63
2022-09-28T05:53:19.617Z,74494.06
2022-09-28T05:55:46.739Z,74496.13
2022-09-28T05:58:13.895Z,74489.97
2022-09-28T06:00:41.121Z,74492.00
2022-09-28T06:03:09.649Z,74496.13
2022-09-28T06:05:36.994Z,74500.22
2022-09-28T06:08:07.000Z,74514.63
2022-09-28T06:10:34.594Z,74504.34
2022-09-28T06:13:01.799Z,74502.28
2022-09-28T06:15:30.219Z,74487.91
2022-09-28T06:18:00.965Z,74500.22
2022-09-28T06:20:28.692Z,74471.47
2022-09-28T06:22:55.810Z,74452.97
2022-09-28T06:25:23.225Z,74463.25
2022-09-28T06:27:59.419Z,74487.91
2022-09-28T06:30:27.239Z,74496.13
2022-09-28T06:32:55.404Z,74510.50
2022-09-28T06:35:22.778Z,74529.00
2022-09-28T06:37:49.805Z,74533.09
2022-09-28T06:40:17.097Z,74520.78
2022-09-28T06:42:44.172Z,74533.09
2022-09-28T06:45:11.420Z,74533.09
2022-09-28T06:47:38.487Z,74526.94
2022-09-28T06:50:14.501Z,74529.00
2022-09-28T06:52:41.978Z,74529.00
2022-09-28T06:55:09.792Z,74547.47
2022-09-28T06:57:36.962Z,74555.69
2022-09-28T07:00:04.253Z,74553.66
2022-09-28T07:02:31.939Z,74565.97
2022-09-28T07:04:59.121Z,74574.19
2022-09-28T07:07:27.235Z,74570.09
2022-09-28T07:09:55.538Z,74563.91
2022-09-28T07:12:24.560Z,74553.66
2022-09-28T07:14:57.420Z,74545.44
2022-09-28T07:17:24.606Z,74537.22
2022-09-28T07:19:52.815Z,74533.09
2022-09-28T07:22:24.020Z,74555.69
2022-09-28T07:24:57.954Z,74568.03
2022-09-28T07:27:28.835Z,74561.88
2022-09-28T07:29:56.840Z,74574.19
2022-09-28T07:32:23.889Z,74559.81
2022-09-28T07:34:52.485Z,74545.44
2022-09-28T07:37:24.222Z,74533.09
2022-09-28T07:40:10.245Z,74553.66
2022-09-28T07:42:38.360Z,74549.53
2022-09-28T07:45:07.017Z,74524.88
2022-09-28T07:47:35.377Z,74510.50
2022-09-28T07:50:02.520Z,74461.19
2022-09-28T07:52:29.865Z,74411.88
2022-09-28T07:54:59.266Z,74397.50
2022-09-28T07:57:28.361Z,74397.50
2022-09-28T07:59:56.835Z,74403.66
2022-09-28T08:02:24.406Z,74387.25
2022-09-28T08:04:51.679Z,74358.47
2022-09-28T08:07:22.904Z,74389.28
2022-09-28T08:09:51.215Z,74434.50
2022-09-28T08:12:19.711Z,74430.38
2022-09-28T08:14:47.218Z,74405.72
2022-09-28T08:17:15.680Z,74430.38
2022-09-28T08:20:02.778Z,74426.28
2022-09-28T08:22:32.355Z,74387.25
2022-09-28T08:24:59.472Z,74401.63
2022-09-28T08:27:26.572Z,74397.50
2022-09-28T08:29:53.630Z,74416.00
2022-09-28T08:32:21.540Z,74356.44
2022-09-28T08:34:48.585Z,74305.06
2022-09-28T08:37:15.693Z,74235.22
2022-09-28T08:39:43.091Z,74224.94
2022-09-28T08:42:22.577Z,74245.50
2022-09-28T08:44:57.174Z,74200.28
2022-09-28T08:47:57.370Z,74216.72
2022-09-28T08:50:26.883Z,74220.84
2022-09-28T08:52:55.120Z,74148.94
2022-09-28T08:55:27.792Z,74085.25
2022-09-28T08:58:15.245Z,73999.00
2022-09-28T09:00:46.382Z,74052.41
2022-09-28T09:03:13.918Z,74050.34
2022-09-28T09:05:47.337Z,74035.97
2022-09-28T09:08:29.986Z,74031.84
2022-09-28T09:11:15.734Z,74064.72
2022-09-28T09:13:43.297Z,74118.13
2022-09-28T09:16:17.068Z,74114.03
2022-09-28T09:18:45.042Z,74105.81
2022-09-28T09:21:16.219Z,74114.03
2022-09-28T09:23:44.019Z,74103.75
2022-09-28T09:26:11.108Z,74052.41
2022-09-28T09:28:45.925Z,74126.34
2022-09-28T09:31:31.814Z,74114.03
2022-09-28T09:34:04.794Z,74146.88
2022-09-28T09:36:34.800Z,74148.94
2022-09-28T09:39:04.808Z,74179.75
2022-09-28T09:41:36.403Z,74212.63
2022-09-28T09:44:03.476Z,74243.44
2022-09-28T09:46:49.744Z,74218.78
2022-09-28T09:49:20.613Z,74237.28
2022-09-28T09:51:56.464Z,74243.44
2022-09-28T09:54:26.464Z,74237.28
2022-09-28T09:57:00.705Z,74261.94
2022-09-28T09:59:31.187Z,74216.72
2022-09-28T10:01:58.572Z,74183.88
2022-09-28T10:04:40.601Z,74192.09
2022-09-28T10:07:09.311Z,74216.72
2022-09-28T10:09:37.936Z,74233.16
2022-09-28T10:12:05.138Z,74255.75
2022-09-28T10:14:33.461Z,74235.22
2022-09-28T10:17:00.768Z,74206.47
2022-09-28T10:19:29.527Z,74237.28
2022-09-28T10:21:58.557Z,74274.25
2022-09-28T10:24:28.700Z,74274.25
2022-09-28T10:26:55.821Z,74263.97
2022-09-28T10:29:24.069Z,74220.84
2022-09-28T10:31:53.621Z,74200.28
2022-09-28T10:34:28.015Z,74210.56
2022-09-28T10:36:59.970Z,74210.56
2022-09-28T10:39:45.206Z,74235.22
2022-09-28T10:42:12.644Z,74224.94
2022-09-28T10:45:00.174Z,74243.44
2022-09-28T10:47:28.507Z,74247.53
2022-09-28T10:49:55.814Z,74224.94
2022-09-28T10:52:29.034Z,74220.84
2022-09-28T10:54:56.074Z,74212.63
2022-09-28T10:57:32.784Z,74159.22
2022-09-28T10:59:59.989Z,74116.06
2022-09-28T11:02:35.499Z,74136.63
2022-09-28T11:05:03.945Z,74155.09
2022-09-28T11:07:34.217Z,74132.50
2022-09-28T11:10:01.973Z,74146.88
2022-09-28T11:12:35.693Z,74159.22
2022-09-28T11:15:03.268Z,74140.72
2022-09-28T11:17:38.528Z,74175.66
2022-09-28T11:20:27.323Z,74165.38
2022-09-28T11:22:59.035Z,74192.09
2022-09-28T11:25:26.930Z,74204.41
2022-09-28T11:27:53.932Z,74208.50
2022-09-28T11:30:42.813Z,74198.25
2022-09-28T11:33:19.242Z,74183.88
2022-09-28T11:35:47.159Z,74179.75
2022-09-28T11:38:23.494Z,74148.94
2022-09-28T11:41:09.127Z,74140.72
2022-09-28T11:43:37.397Z,74124.28
2022-09-28T11:46:26.157Z,74126.34
2022-09-28T11:48:55.401Z,74126.34
2022-09-28T11:51:26.848Z,74114.03
2022-09-28T11:53:55.283Z,74130.44
2022-09-28T11:56:43.313Z,74138.66
2022-09-28T11:59:12.652Z,74155.09
2022-09-28T12:01:48.937Z,74151.00
2022-09-28T12:04:26.141Z,74163.31
2022-09-28T12:06:54.014Z,74159.22
2022-09-28T12:09:50.886Z,74175.66
2022-09-28T12:12:25.608Z,74179.75
2022-09-28T12:14:53.328Z,74185.91
2022-09-28T12:17:31.390Z,74196.19
2022-09-28T12:19:59.599Z,74204.41
2022-09-28T12:22:34.849Z,74169.47
2022-09-28T12:25:04.058Z,74167.44
2022-09-28T12:27:41.281Z,74208.50
2022-09-28T12:30:11.407Z,74224.94
2022-09-28T12:32:41.590Z,74216.72
2022-09-28T12:35:16.278Z,74212.63
2022-09-28T12:37:52.650Z,74212.63
2022-09-28T12:40:40.226Z,74233.16
2022-09-28T12:43:17.569Z,74206.47
2022-09-28T12:46:09.885Z,74192.09
2022-09-28T12:48:36.322Z,74200.28
2022-09-28T12:51:06.206Z,74208.50
2022-09-28T12:53:48.383Z,74208.50
2022-09-28T12:56:24.400Z,74220.84
2022-09-28T12:59:01.075Z,74198.25
2022-09-28T13:01:42.443Z,74179.75
2022-09-28T13:04:13.846Z,74183.88
2022-09-28T13:07:04.439Z,74155.09
2022-09-28T13:09:34.900Z,74171.53
2022-09-28T13:12:02.175Z,74177.69
2022-09-28T13:14:50.223Z,74167.44
2022-09-28T13:17:23.860Z,74151.00
2022-09-28T13:19:52.921Z,74192.09
2022-09-28T13:22:26.513Z,74204.41
2022-09-28T13:24:54.161Z,74220.84
2022-09-28T13:27:29.534Z,74253.72
2022-09-28T13:30:00.604Z,74208.50
2022-09-28T13:32:34.475Z,74042.13
2022-09-28T13:35:05.462Z,73896.28
2022-09-28T13:37:34.438Z,73760.72
2022-09-28T13:40:06.129Z,73653.91
2022-09-28T13:42:47.339Z,73629.25
2022-09-28T13:45:20.629Z,73555.31
2022-09-28T13:47:51.636Z,73592.28
2022-09-28T13:50:27.776Z,73678.56
2022-09-28T13:53:15.293Z,73773.03
2022-09-28T13:55:50.373Z,73945.59
2022-09-28T13:58:20.614Z,73962.00
2022-09-28T14:00:50.595Z,73962.00
2022-09-28T14:03:28.155Z,74019.53
2022-09-28T14:08:52.608Z,74114.03
2022-09-28T14:11:34.975Z,74206.47
2022-09-28T14:14:02.334Z,74208.50
2022-09-28T14:16:33.949Z,74224.94
2022-09-28T14:19:02.416Z,74204.41
2022-09-28T14:21:41.810Z,74218.78
2022-09-28T14:24:27.462Z,74245.50
2022-09-28T14:27:04.592Z,74261.94
2022-09-28T14:29:32.816Z,74288.63
2022-09-28T14:32:09.141Z,74313.28
2022-09-28T14:34:36.225Z,74331.78
2022-09-28T14:37:22.582Z,74319.44
2022-09-28T14:40:08.288Z,74315.34
2022-09-28T14:42:35.665Z,74335.88
2022-09-28T14:45:06.292Z,74327.66
2022-09-28T14:47:42.868Z,74333.81
2022-09-28T14:50:26.123Z,74337.94
2022-09-28T14:52:53.813Z,74335.88
2022-09-28T14:55:25.460Z,74331.78
2022-09-28T14:57:53.186Z,74354.38
2022-09-28T15:00:21.157Z,74364.63
2022-09-28T15:02:49.174Z,74401.63
2022-09-28T15:05:16.974Z,74391.34
2022-09-28T15:07:47.529Z,74418.06
2022-09-28T15:10:35.531Z,74426.28
2022-09-28T15:13:06.303Z,74426.28
2022-09-28T15:15:38.315Z,74446.81
2022-09-28T15:18:05.458Z,74452.97
2022-09-28T15:20:36.678Z,74467.34
2022-09-28T15:23:03.943Z,74471.47
2022-09-28T15:25:32.133Z,74483.78
2022-09-28T15:28:03.504Z,74506.41
2022-09-28T15:30:35.020Z,74533.09
2022-09-28T15:33:21.434Z,74541.31
2022-09-28T15:36:02.053Z,74535.16
2022-09-28T15:38:30.041Z,74580.34
2022-09-28T15:40:57.513Z,74580.34
2022-09-28T15:43:27.056Z,74590.63
2022-09-28T15:46:02.599Z,74598.84
2022-09-28T15:48:36.844Z,74596.78
2022-09-28T15:51:03.823Z,74605.00
2022-09-28T15:53:31.358Z,74623.50
2022-09-28T15:56:03.608Z,74631.72
2022-09-28T15:58:30.670Z,74639.94
2022-09-28T16:01:18.554Z,74635.81
2022-09-28T16:03:45.971Z,74648.16
2022-09-28T16:06:13.714Z,74656.38
2022-09-28T16:08:42.150Z,74668.69
2022-09-28T16:11:12.226Z,74672.81
2022-09-28T16:13:52.845Z,74681.03
2022-09-28T16:16:26.023Z,74687.19
2022-09-28T16:18:55.613Z,74691.28
2022-09-28T16:21:31.780Z,74701.56
2022-09-28T16:24:00.642Z,74715.94
2022-09-28T16:26:29.650Z,74715.94
2022-09-28T16:28:56.691Z,74734.44
2022-09-28T16:31:27.240Z,74746.78
2022-09-28T16:33:59.321Z,74752.94
2022-09-28T16:36:27.625Z,74761.16
2022-09-28T16:38:55.235Z,74759.09
2022-09-28T16:41:23.490Z,74755.00
2022-09-28T16:43:55.897Z,74759.09
2022-09-28T16:46:23.190Z,74755.00
2022-09-28T16:48:50.378Z,74771.44
2022-09-28T16:51:17.733Z,74791.97
2022-09-28T16:54:03.800Z,74808.41
2022-09-28T16:56:32.020Z,74800.19
2022-09-28T16:59:02.136Z,74804.31
2022-09-28T17:01:30.160Z,74814.56
2022-09-28T17:03:57.361Z,74808.41
2022-09-28T17:06:27.406Z,74812.53
2022-09-28T17:08:56.689Z,74808.41
2022-09-28T17:11:25.043Z,74802.25
2022-09-28T17:13:58.829Z,74820.75
2022-09-28T17:16:50.993Z,74812.53
2022-09-28T17:19:22.224Z,74814.56
2022-09-28T17:21:49.476Z,74824.84
2022-09-28T17:24:17.451Z,74816.63
2022-09-28T17:26:45.969Z,74824.84
2022-09-28T17:29:14.518Z,74828.94
2022-09-28T17:31:42.658Z,74824.84
2022-09-28T17:34:10.237Z,74841.28
2022-09-28T17:36:37.607Z,74857.72
2022-09-28T17:39:06.504Z,74868.00
2022-09-28T17:41:37.206Z,74865.94
2022-09-28T17:44:04.302Z,74861.81
2022-09-28T17:46:32.437Z,74865.94
2022-09-28T17:49:00.360Z,74861.81
2022-09-28T17:51:28.264Z,74853.59
2022-09-28T17:53:56.857Z,74865.94
2022-09-28T17:56:26.485Z,74874.16
2022-09-28T17:58:57.092Z,74874.16
2022-09-28T18:01:24.152Z,74870.03
2022-09-28T18:03:51.218Z,74874.16
2022-09-28T18:06:20.288Z,74886.47
2022-09-28T18:08:47.442Z,74894.69
2022-09-28T18:11:14.493Z,74892.66
2022-09-28T18:13:41.545Z,74890.59
2022-09-28T18:16:08.662Z,74894.69
2022-09-28T18:18:38.384Z,74894.69
2022-09-28T18:21:06.127Z,74902.91
2022-09-28T18:23:36.913Z,74894.69
2022-09-28T18:26:04.728Z,74890.59
2022-09-28T18:28:31.814Z,74894.69
2022-09-28T18:30:59.014Z,74917.31
2022-09-28T18:33:26.115Z,74894.69
2022-09-28T18:35:53.421Z,74878.25
2022-09-28T18:38:20.478Z,74890.59
2022-09-28T18:40:48.357Z,74882.38
2022-09-28T18:43:15.829Z,74868.00
2022-09-28T18:45:42.891Z,74857.72
2022-09-28T18:48:10.337Z,74847.44
2022-09-28T18:50:37.766Z,74865.94
2022-09-28T18:53:13.882Z,74870.03
2022-09-28T18:55:41.561Z,74843.34
2022-09-28T18:58:09.123Z,74845.38
2022-09-28T19:00:40.541Z,74853.59
2022-09-28T19:03:07.879Z,74894.69
2022-09-28T19:05:35.548Z,74880.31
2022-09-28T19:08:02.707Z,74878.25
2022-09-28T19:10:30.703Z,74874.16
2022-09-28T19:12:57.999Z,74880.31
2022-09-28T19:15:25.713Z,74876.22
2022-09-28T19:17:52.789Z,74886.47
2022-09-28T19:20:19.975Z,74882.38
2022-09-28T19:22:49.127Z,74882.38
2022-09-28T19:25:16.158Z,74884.44
2022-09-28T19:27:43.238Z,74898.81
2022-09-28T19:30:10.853Z,74919.34
2022-09-28T19:32:39.027Z,74923.47
2022-09-28T19:35:06.553Z,74911.13
2022-09-28T19:37:36.574Z,74917.31
2022-09-28T19:40:05.841Z,74911.13
2022-09-28T19:42:34.105Z,74937.84
2022-09-28T19:45:01.123Z,74927.56
2022-09-28T19:47:28.326Z,74925.53
2022-09-28T19:49:55.413Z,74927.56
2022-09-28T19:52:22.490Z,74933.75
2022-09-28T19:55:00.215Z,74948.13
2022-09-28T19:57:28.388Z,74964.56
2022-09-28T20:00:00.774Z,74960.44
2022-09-28T20:02:29.517Z,74981.00
2022-09-28T20:04:56.776Z,74960.44
2022-09-28T20:07:24.042Z,74966.63
2022-09-28T20:09:51.728Z,74960.44
2022-09-28T20:12:18.938Z,74960.44
2022-09-28T20:14:46.029Z,74960.44
2022-09-28T20:17:13.668Z,74972.78
2022-09-28T20:19:42.582Z,74968.66
2022-09-28T20:22:10.105Z,74952.22
2022-09-28T20:24:37.208Z,74944.00
2022-09-28T20:27:04.233Z,74939.91
2022-09-28T20:29:33.837Z,74958.41
2022-09-28T20:32:01.479Z,74939.91
2022-09-28T20:34:28.868Z,74944.00
2022-09-28T20:36:55.952Z,74933.75
2022-09-28T20:39:23.041Z,74939.91
2022-09-28T20:41:50.108Z,74944.00
2022-09-28T20:44:17.468Z,74948.13
2022-09-28T20:46:44.888Z,74950.19
2022-09-28T20:49:12.211Z,74954.28
2022-09-28T20:51:40.878Z,74954.28
2022-09-28T20:54:07.915Z,74981.00
2022-09-28T20:56:38.886Z,75013.88
2022-09-28T20:59:10.397Z,74997.44
2022-09-28T21:01:37.679Z,74981.00
2022-09-28T21:04:05.531Z,74964.56
2022-09-28T21:06:36.761Z,74966.63
2022-09-28T21:09:04.617Z,74966.63
2022-09-28T21:11:32.154Z,74981.00
2022-09-28T21:14:01.642Z,74985.09
2022-09-28T21:16:29.646Z,74993.31
2022-09-28T21:18:56.889Z,75009.75
2022-09-28T21:21:24.089Z,75038.53
2022-09-28T21:23:54.517Z,75034.41
2022-09-28T21:26:25.179Z,75042.66
2022-09-28T21:28:53.748Z,75057.03
2022-09-28T21:31:23.712Z,75069.34
2022-09-28T21:33:55.082Z,75081.69
2022-09-28T21:36:22.105Z,75087.84
2022-09-28T21:38:49.424Z,75087.84
2022-09-28T21:41:16.704Z,75096.06
2022-09-28T21:43:43.722Z,75104.28
2022-09-28T21:46:10.978Z,75102.22
2022-09-28T21:48:38.106Z,75122.78
2022-09-28T21:51:06.134Z,75131.00
2022-09-28T21:53:36.978Z,75141.28
2022-09-28T21:56:06.095Z,75139.22
2022-09-28T21:58:34.019Z,75153.59
2022-09-28T22:01:01.355Z,75153.59
2022-09-28T22:03:28.786Z,75163.88
2022-09-28T22:05:55.867Z,75174.16
2022-09-28T22:08:23.095Z,75176.19
2022-09-28T22:11:00.813Z,75174.16
2022-09-28T22:13:29.008Z,75188.53
2022-09-28T22:15:57.837Z,75196.75
2022-09-28T22:18:25.697Z,75194.69
2022-09-28T22:21:22.215Z,75204.97
2022-09-28T22:23:49.977Z,75215.25
2022-09-28T22:26:20.201Z,75219.34
2022-09-28T22:28:49.486Z,75225.53
2022-09-28T22:31:16.872Z,75252.22
2022-09-28T22:33:43.954Z,75244.00
2022-09-28T22:36:12.300Z,75248.13
2022-09-28T22:38:39.754Z,75235.78
2022-09-28T22:41:06.842Z,75244.00
2022-09-28T22:43:34.115Z,75252.22
2022-09-28T22:46:21.557Z,75256.34
2022-09-28T22:48:55.414Z,75260.44
2022-09-28T22:51:23.289Z,75262.50
2022-09-28T22:53:50.381Z,75248.13
2022-09-28T22:56:19.170Z,75246.06
2022-09-28T22:58:46.939Z,75244.00
2022-09-28T23:01:17.891Z,75239.91
2022-09-28T23:03:45.468Z,75239.91
2022-09-28T23:06:13.207Z,75252.22
2022-09-28T23:08:41.894Z,75256.34
2022-09-28T23:11:09.234Z,75231.69
2022-09-28T23:13:37.601Z,75219.34
2022-09-28T23:16:06.238Z,75196.75
2022-09-28T23:18:34.055Z,75186.47
2022-09-28T23:21:02.011Z,75178.25
2022-09-28T23:23:29.194Z,75178.25
2022-09-28T23:25:57.099Z,75174.16
2022-09-28T23:28:24.645Z,75165.94
2022-09-28T23:30:51.870Z,75155.66
2022-09-28T23:33:19.349Z,75157.72
2022-09-28T23:35:46.753Z,75149.50
2022-09-28T23:38:15.276Z,75145.38
2022-09-28T23:40:42.433Z,75153.59
2022-09-28T23:43:09.696Z,75167.97
2022-09-28T23:45:37.204Z,75157.72
2022-09-28T23:48:08.612Z,75149.50
2022-09-28T23:50:36.675Z,75137.16
2022-09-28T23:53:03.748Z,75124.84
2022-09-28T23:55:31.763Z,75122.78
2022-09-28T23:57:59.070Z,75131.00
